sensor_id;sensor_type;location;lat;lon;timestamp;P1;durP1;ratioP1;P2;durP2;ratioP2
49758;SDS011;35654;46.080;11.118;2022-10-10T00:00:42;18.07;;;7.33;;
49758;SDS011;35654;46.080;11.118;2022-10-10T00:03:08;13.13;;;7.53;;
49758;SDS011;35654;46.080;11.118;2022-10-10T00:05:35;11.57;;;7.95;;
49758;SDS011;35654;46.080;11.118;2022-10-10T00:08:02;11.10;;;7.22;;
49758;SDS011;35654;46.080;11.118;2022-10-10T00:10:27;12.77;;;7.45;;
49758;SDS011;35654;46.080;11.118;2022-10-10T00:12:53;14.90;;;8.20;;
49758;SDS011;35654;46.080;11.118;2022-10-10T00:15:18;13.17;;;7.40;;
49758;SDS011;35654;46.080;11.118;2022-10-10T00:17:44;11.07;;;7.97;;
49758;SDS011;35654;46.080;11.118;2022-10-10T00:20:10;13.53;;;7.43;;
49758;SDS011;35654;46.080;11.118;2022-10-10T00:22:36;16.63;;;7.78;;
49758;SDS011;35654;46.080;11.118;2022-10-10T00:25:02;11.40;;;7.60;;
49758;SDS011;35654;46.080;11.118;2022-10-10T00:27:28;12.77;;;7.43;;
49758;SDS011;35654;46.080;11.118;2022-10-10T00:29:54;12.97;;;7.13;;
49758;SDS011;35654;46.080;11.118;2022-10-10T00:32:19;13.07;;;7.80;;
49758;SDS011;35654;46.080;11.118;2022-10-10T00:34:45;13.87;;;7.17;;
49758;SDS011;35654;46.080;11.118;2022-10-10T00:37:10;14.03;;;7.27;;
49758;SDS011;35654;46.080;11.118;2022-10-10T00:39:35;13.03;;;7.20;;
49758;SDS011;35654;46.080;11.118;2022-10-10T00:42:01;13.90;;;7.40;;
49758;SDS011;35654;46.080;11.118;2022-10-10T00:44:26;15.30;;;7.40;;
49758;SDS011;35654;46.080;11.118;2022-10-10T00:46:52;15.33;;;7.87;;
49758;SDS011;35654;46.080;11.118;2022-10-10T00:49:18;17.33;;;8.00;;
49758;SDS011;35654;46.080;11.118;2022-10-10T00:51:47;13.55;;;7.22;;
49758;SDS011;35654;46.080;11.118;2022-10-10T00:54:16;11.75;;;7.05;;
49758;SDS011;35654;46.080;11.118;2022-10-10T00:56:47;12.85;;;7.35;;
49758;SDS011;35654;46.080;11.118;2022-10-10T00:59:15;10.27;;;6.82;;
49758;SDS011;35654;46.080;11.118;2022-10-10T01:01:42;10.27;;;6.53;;
49758;SDS011;35654;46.080;11.118;2022-10-10T01:06:54;14.48;;;7.15;;
49758;SDS011;35654;46.080;11.118;2022-10-10T01:09:21;14.23;;;7.30;;
49758;SDS011;35654;46.080;11.118;2022-10-10T01:17:40;15.25;;;7.00;;
49758;SDS011;35654;46.080;11.118;2022-10-10T01:26:00;18.40;;;6.80;;
49758;SDS011;35654;46.080;11.118;2022-10-10T01:28:37;15.00;;;7.43;;
49758;SDS011;35654;46.080;11.118;2022-10-10T01:31:13;11.85;;;7.43;;
49758;SDS011;35654;46.080;11.118;2022-10-10T01:33:52;15.63;;;7.00;;
49758;SDS011;35654;46.080;11.118;2022-10-10T01:36:30;12.38;;;6.85;;
49758;SDS011;35654;46.080;11.118;2022-10-10T01:39:12;16.48;;;7.18;;
49758;SDS011;35654;46.080;11.118;2022-10-10T01:42:34;13.27;;;6.53;;
49758;SDS011;35654;46.080;11.118;2022-10-10T01:44:44;12.15;;;7.15;;
49758;SDS011;35654;46.080;11.118;2022-10-10T01:47:10;13.07;;;6.95;;
49758;SDS011;35654;46.080;11.118;2022-10-10T01:55:21;12.15;;;6.95;;
49758;SDS011;35654;46.080;11.118;2022-10-10T02:00:45;12.57;;;7.13;;
49758;SDS011;35654;46.080;11.118;2022-10-10T02:03:15;12.45;;;6.97;;
49758;SDS011;35654;46.080;11.118;2022-10-10T02:05:46;11.32;;;6.78;;
49758;SDS011;35654;46.080;11.118;2022-10-10T02:11:00;14.95;;;7.25;;
49758;SDS011;35654;46.080;11.118;2022-10-10T02:14:11;12.52;;;6.97;;
49758;SDS011;35654;46.080;11.118;2022-10-10T02:16:29;12.35;;;7.00;;
49758;SDS011;35654;46.080;11.118;2022-10-10T02:18:59;14.48;;;6.88;;
49758;SDS011;35654;46.080;11.118;2022-10-10T02:21:27;16.15;;;7.00;;
49758;SDS011;35654;46.080;11.118;2022-10-10T02:23:54;13.27;;;7.57;;
49758;SDS011;35654;46.080;11.118;2022-10-10T02:26:23;12.10;;;7.35;;
49758;SDS011;35654;46.080;11.118;2022-10-10T02:31:30;10.57;;;7.00;;
49758;SDS011;35654;46.080;11.118;2022-10-10T02:34:11;14.45;;;7.18;;
49758;SDS011;35654;46.080;11.118;2022-10-10T02:36:40;10.07;;;6.43;;
49758;SDS011;35654;46.080;11.118;2022-10-10T02:39:08;10.13;;;6.47;;
49758;SDS011;35654;46.080;11.118;2022-10-10T02:41:37;11.10;;;6.95;;
49758;SDS011;35654;46.080;11.118;2022-10-10T02:46:29;12.05;;;7.10;;
49758;SDS011;35654;46.080;11.118;2022-10-10T02:48:54;17.07;;;7.87;;
49758;SDS011;35654;46.080;11.118;2022-10-10T02:51:20;13.70;;;7.17;;
49758;SDS011;35654;46.080;11.118;2022-10-10T02:53:46;15.43;;;6.60;;
49758;SDS011;35654;46.080;11.118;2022-10-10T02:56:11;12.53;;;7.17;;
49758;SDS011;35654;46.080;11.118;2022-10-10T02:58:37;14.67;;;6.80;;
49758;SDS011;35654;46.080;11.118;2022-10-10T03:01:02;12.43;;;7.37;;
49758;SDS011;35654;46.080;11.118;2022-10-10T03:03:28;10.97;;;6.97;;
49758;SDS011;35654;46.080;11.118;2022-10-10T03:05:53;15.33;;;7.70;;
49758;SDS011;35654;46.080;11.118;2022-10-10T03:08:19;16.80;;;6.73;;
49758;SDS011;35654;46.080;11.118;2022-10-10T03:10:57;11.70;;;7.10;;
49758;SDS011;35654;46.080;11.118;2022-10-10T03:13:25;10.65;;;6.50;;
49758;SDS011;35654;46.080;11.118;2022-10-10T03:15:51;12.43;;;6.87;;
49758;SDS011;35654;46.080;11.118;2022-10-10T03:18:17;11.68;;;7.35;;
49758;SDS011;35654;46.080;11.118;2022-10-10T03:20:48;18.88;;;6.97;;
49758;SDS011;35654;46.080;11.118;2022-10-10T03:23:15;12.95;;;7.30;;
49758;SDS011;35654;46.080;11.118;2022-10-10T03:25:43;13.00;;;7.00;;
49758;SDS011;35654;46.080;11.118;2022-10-10T03:28:09;12.85;;;7.78;;
49758;SDS011;35654;46.080;11.118;2022-10-10T03:30:36;13.20;;;7.07;;
49758;SDS011;35654;46.080;11.118;2022-10-10T03:33:02;14.80;;;7.93;;
49758;SDS011;35654;46.080;11.118;2022-10-10T03:35:27;14.77;;;7.40;;
49758;SDS011;35654;46.080;11.118;2022-10-10T03:37:53;11.23;;;7.33;;
49758;SDS011;35654;46.080;11.118;2022-10-10T03:40:18;12.37;;;7.10;;
49758;SDS011;35654;46.080;11.118;2022-10-10T03:42:43;11.73;;;7.40;;
49758;SDS011;35654;46.080;11.118;2022-10-10T03:45:09;11.80;;;7.07;;
49758;SDS011;35654;46.080;11.118;2022-10-10T03:47:34;15.50;;;7.70;;
49758;SDS011;35654;46.080;11.118;2022-10-10T03:50:00;12.07;;;7.00;;
49758;SDS011;35654;46.080;11.118;2022-10-10T03:52:25;19.77;;;9.00;;
49758;SDS011;35654;46.080;11.118;2022-10-10T03:54:51;18.13;;;9.33;;
49758;SDS011;35654;46.080;11.118;2022-10-10T03:57:16;13.83;;;8.40;;
49758;SDS011;35654;46.080;11.118;2022-10-10T03:59:41;14.70;;;8.03;;
49758;SDS011;35654;46.080;11.118;2022-10-10T04:02:07;17.13;;;8.10;;
49758;SDS011;35654;46.080;11.118;2022-10-10T04:04:32;16.43;;;8.20;;
49758;SDS011;35654;46.080;11.118;2022-10-10T04:06:58;11.87;;;7.43;;
49758;SDS011;35654;46.080;11.118;2022-10-10T04:09:23;11.53;;;7.77;;
49758;SDS011;35654;46.080;11.118;2022-10-10T04:11:48;15.57;;;8.13;;
49758;SDS011;35654;46.080;11.118;2022-10-10T04:14:14;11.77;;;8.07;;
49758;SDS011;35654;46.080;11.118;2022-10-10T04:16:39;15.77;;;7.53;;
49758;SDS011;35654;46.080;11.118;2022-10-10T04:19:05;14.93;;;8.03;;
49758;SDS011;35654;46.080;11.118;2022-10-10T04:21:30;14.17;;;8.03;;
49758;SDS011;35654;46.080;11.118;2022-10-10T04:23:55;15.23;;;7.93;;
49758;SDS011;35654;46.080;11.118;2022-10-10T04:26:21;14.43;;;8.20;;
49758;SDS011;35654;46.080;11.118;2022-10-10T04:28:46;14.00;;;8.27;;
49758;SDS011;35654;46.080;11.118;2022-10-10T04:31:12;13.47;;;8.20;;
49758;SDS011;35654;46.080;11.118;2022-10-10T04:33:37;15.83;;;8.10;;
49758;SDS011;35654;46.080;11.118;2022-10-10T04:36:03;15.17;;;8.17;;
49758;SDS011;35654;46.080;11.118;2022-10-10T04:38:28;11.20;;;8.00;;
49758;SDS011;35654;46.080;11.118;2022-10-10T04:40:54;16.23;;;8.53;;
49758;SDS011;35654;46.080;11.118;2022-10-10T04:43:19;21.57;;;8.03;;
49758;SDS011;35654;46.080;11.118;2022-10-10T04:45:45;16.83;;;7.93;;
49758;SDS011;35654;46.080;11.118;2022-10-10T04:48:11;15.68;;;8.13;;
49758;SDS011;35654;46.080;11.118;2022-10-10T04:50:36;17.50;;;8.03;;
49758;SDS011;35654;46.080;11.118;2022-10-10T04:53:02;16.90;;;8.27;;
49758;SDS011;35654;46.080;11.118;2022-10-10T04:55:27;20.70;;;7.50;;
49758;SDS011;35654;46.080;11.118;2022-10-10T04:57:53;19.40;;;8.30;;
49758;SDS011;35654;46.080;11.118;2022-10-10T05:00:18;20.80;;;8.33;;
49758;SDS011;35654;46.080;11.118;2022-10-10T05:02:44;19.43;;;8.30;;
49758;SDS011;35654;46.080;11.118;2022-10-10T05:05:09;14.77;;;7.77;;
49758;SDS011;35654;46.080;11.118;2022-10-10T05:07:35;15.60;;;7.90;;
49758;SDS011;35654;46.080;11.118;2022-10-10T05:10:00;14.80;;;8.33;;
49758;SDS011;35654;46.080;11.118;2022-10-10T05:12:26;16.45;;;8.73;;
49758;SDS011;35654;46.080;11.118;2022-10-10T05:14:51;12.43;;;7.37;;
49758;SDS011;35654;46.080;11.118;2022-10-10T05:17:17;12.90;;;8.40;;
49758;SDS011;35654;46.080;11.118;2022-10-10T05:19:43;14.90;;;8.67;;
49758;SDS011;35654;46.080;11.118;2022-10-10T05:22:08;16.63;;;8.67;;
49758;SDS011;35654;46.080;11.118;2022-10-10T05:24:34;13.83;;;8.30;;
49758;SDS011;35654;46.080;11.118;2022-10-10T05:26:59;16.87;;;8.20;;
49758;SDS011;35654;46.080;11.118;2022-10-10T05:29:24;14.20;;;8.50;;
49758;SDS011;35654;46.080;11.118;2022-10-10T05:31:50;17.40;;;7.93;;
49758;SDS011;35654;46.080;11.118;2022-10-10T05:34:15;14.33;;;8.27;;
49758;SDS011;35654;46.080;11.118;2022-10-10T05:36:41;15.93;;;8.60;;
49758;SDS011;35654;46.080;11.118;2022-10-10T05:39:07;12.70;;;8.07;;
49758;SDS011;35654;46.080;11.118;2022-10-10T05:41:33;19.00;;;8.50;;
49758;SDS011;35654;46.080;11.118;2022-10-10T05:43:59;13.65;;;8.73;;
49758;SDS011;35654;46.080;11.118;2022-10-10T05:46:24;14.63;;;8.53;;
49758;SDS011;35654;46.080;11.118;2022-10-10T05:48:51;15.40;;;7.70;;
49758;SDS011;35654;46.080;11.118;2022-10-10T05:51:17;12.07;;;7.57;;
49758;SDS011;35654;46.080;11.118;2022-10-10T05:53:43;21.55;;;8.63;;
49758;SDS011;35654;46.080;11.118;2022-10-10T05:56:09;19.40;;;9.00;;
49758;SDS011;35654;46.080;11.118;2022-10-10T05:58:35;17.55;;;7.68;;
49758;SDS011;35654;46.080;11.118;2022-10-10T06:01:04;18.27;;;7.43;;
49758;SDS011;35654;46.080;11.118;2022-10-10T06:03:31;15.13;;;7.65;;
49758;SDS011;35654;46.080;11.118;2022-10-10T06:05:57;17.80;;;7.72;;
49758;SDS011;35654;46.080;11.118;2022-10-10T06:08:22;19.00;;;7.73;;
49758;SDS011;35654;46.080;11.118;2022-10-10T06:10:48;16.70;;;7.37;;
49758;SDS011;35654;46.080;11.118;2022-10-10T06:13:14;17.00;;;7.30;;
49758;SDS011;35654;46.080;11.118;2022-10-10T06:15:40;16.45;;;7.93;;
49758;SDS011;35654;46.080;11.118;2022-10-10T06:18:08;20.90;;;7.15;;
49758;SDS011;35654;46.080;11.118;2022-10-10T06:20:35;18.85;;;7.82;;
49758;SDS011;35654;46.080;11.118;2022-10-10T06:23:01;21.92;;;7.70;;
49758;SDS011;35654;46.080;11.118;2022-10-10T06:25:26;12.10;;;6.80;;
49758;SDS011;35654;46.080;11.118;2022-10-10T06:27:52;15.47;;;6.90;;
49758;SDS011;35654;46.080;11.118;2022-10-10T06:30:17;17.47;;;7.40;;
49758;SDS011;35654;46.080;11.118;2022-10-10T06:32:42;15.83;;;6.83;;
49758;SDS011;35654;46.080;11.118;2022-10-10T06:35:08;15.83;;;7.10;;
49758;SDS011;35654;46.080;11.118;2022-10-10T06:37:34;16.97;;;7.53;;
49758;SDS011;35654;46.080;11.118;2022-10-10T06:39:59;17.00;;;7.90;;
49758;SDS011;35654;46.080;11.118;2022-10-10T06:42:24;12.80;;;6.67;;
49758;SDS011;35654;46.080;11.118;2022-10-10T06:44:50;17.40;;;6.77;;
49758;SDS011;35654;46.080;11.118;2022-10-10T06:47:15;14.90;;;7.47;;
49758;SDS011;35654;46.080;11.118;2022-10-10T06:49:41;19.77;;;7.53;;
49758;SDS011;35654;46.080;11.118;2022-10-10T06:52:06;11.55;;;7.13;;
49758;SDS011;35654;46.080;11.118;2022-10-10T06:54:32;13.77;;;7.27;;
49758;SDS011;35654;46.080;11.118;2022-10-10T06:56:57;15.37;;;7.17;;
49758;SDS011;35654;46.080;11.118;2022-10-10T06:59:23;14.53;;;6.97;;
49758;SDS011;35654;46.080;11.118;2022-10-10T07:01:48;13.93;;;7.47;;
49758;SDS011;35654;46.080;11.118;2022-10-10T07:04:13;16.93;;;6.57;;
49758;SDS011;35654;46.080;11.118;2022-10-10T07:06:39;20.80;;;6.73;;
49758;SDS011;35654;46.080;11.118;2022-10-10T07:09:04;14.77;;;6.70;;
49758;SDS011;35654;46.080;11.118;2022-10-10T07:11:30;14.73;;;6.90;;
49758;SDS011;35654;46.080;11.118;2022-10-10T07:13:56;10.00;;;6.75;;
49758;SDS011;35654;46.080;11.118;2022-10-10T07:16:22;16.27;;;6.50;;
49758;SDS011;35654;46.080;11.118;2022-10-10T07:18:47;12.90;;;6.60;;
49758;SDS011;35654;46.080;11.118;2022-10-10T07:21:13;13.37;;;7.37;;
49758;SDS011;35654;46.080;11.118;2022-10-10T07:23:38;13.83;;;6.80;;
49758;SDS011;35654;46.080;11.118;2022-10-10T07:26:05;13.90;;;6.73;;
49758;SDS011;35654;46.080;11.118;2022-10-10T07:28:34;14.10;;;6.75;;
49758;SDS011;35654;46.080;11.118;2022-10-10T07:31:02;16.02;;;5.97;;
49758;SDS011;35654;46.080;11.118;2022-10-10T07:33:47;12.88;;;6.15;;
49758;SDS011;35654;46.080;11.118;2022-10-10T07:36:13;14.55;;;6.65;;
49758;SDS011;35654;46.080;11.118;2022-10-10T07:38:39;10.20;;;6.40;;
49758;SDS011;35654;46.080;11.118;2022-10-10T07:41:08;12.57;;;6.93;;
49758;SDS011;35654;46.080;11.118;2022-10-10T07:43:36;12.35;;;6.60;;
49758;SDS011;35654;46.080;11.118;2022-10-10T07:46:03;15.55;;;6.35;;
49758;SDS011;35654;46.080;11.118;2022-10-10T07:48:30;13.63;;;6.40;;
49758;SDS011;35654;46.080;11.118;2022-10-10T07:53:22;11.55;;;6.18;;
49758;SDS011;35654;46.080;11.118;2022-10-10T07:55:48;14.50;;;6.60;;
49758;SDS011;35654;46.080;11.118;2022-10-10T07:58:13;13.73;;;6.80;;
49758;SDS011;35654;46.080;11.118;2022-10-10T08:00:39;14.07;;;6.73;;
49758;SDS011;35654;46.080;11.118;2022-10-10T08:03:09;13.90;;;6.45;;
49758;SDS011;35654;46.080;11.118;2022-10-10T08:05:38;13.02;;;6.25;;
49758;SDS011;35654;46.080;11.118;2022-10-10T08:08:05;12.05;;;6.05;;
49758;SDS011;35654;46.080;11.118;2022-10-10T08:10:31;17.53;;;6.80;;
49758;SDS011;35654;46.080;11.118;2022-10-10T08:12:56;13.57;;;6.67;;
49758;SDS011;35654;46.080;11.118;2022-10-10T08:15:21;16.70;;;6.37;;
49758;SDS011;35654;46.080;11.118;2022-10-10T08:17:47;11.83;;;6.40;;
49758;SDS011;35654;46.080;11.118;2022-10-10T08:20:12;13.87;;;6.27;;
49758;SDS011;35654;46.080;11.118;2022-10-10T08:22:38;12.20;;;6.17;;
49758;SDS011;35654;46.080;11.118;2022-10-10T08:25:04;9.85;;;5.82;;
49758;SDS011;35654;46.080;11.118;2022-10-10T08:27:29;10.50;;;5.80;;
49758;SDS011;35654;46.080;11.118;2022-10-10T08:29:55;11.05;;;5.80;;
49758;SDS011;35654;46.080;11.118;2022-10-10T08:32:20;9.30;;;6.03;;
49758;SDS011;35654;46.080;11.118;2022-10-10T08:34:46;10.87;;;5.93;;
49758;SDS011;35654;46.080;11.118;2022-10-10T08:37:11;15.37;;;5.83;;
49758;SDS011;35654;46.080;11.118;2022-10-10T08:39:37;10.77;;;5.80;;
49758;SDS011;35654;46.080;11.118;2022-10-10T08:42:02;14.07;;;6.13;;
49758;SDS011;35654;46.080;11.118;2022-10-10T08:47:04;9.65;;;5.72;;
49758;SDS011;35654;46.080;11.118;2022-10-10T08:49:45;11.13;;;5.30;;
49758;SDS011;35654;46.080;11.118;2022-10-10T08:52:18;8.60;;;5.43;;
49758;SDS011;35654;46.080;11.118;2022-10-10T08:54:47;13.52;;;5.80;;
49758;SDS011;35654;46.080;11.118;2022-10-10T08:57:29;13.77;;;6.18;;
49758;SDS011;35654;46.080;11.118;2022-10-10T09:00:05;12.85;;;6.22;;
49758;SDS011;35654;46.080;11.118;2022-10-10T09:02:54;16.42;;;6.07;;
49758;SDS011;35654;46.080;11.118;2022-10-10T09:16:44;12.65;;;5.55;;
49758;SDS011;35654;46.080;11.118;2022-10-10T09:19:30;13.23;;;5.67;;
49758;SDS011;35654;46.080;11.118;2022-10-10T09:22:31;10.68;;;5.32;;
49758;SDS011;35654;46.080;11.118;2022-10-10T09:25:17;11.90;;;5.63;;
49758;SDS011;35654;46.080;11.118;2022-10-10T09:28:34;10.43;;;5.40;;
49758;SDS011;35654;46.080;11.118;2022-10-10T09:30:36;8.57;;;5.22;;
49758;SDS011;35654;46.080;11.118;2022-10-10T09:33:18;10.52;;;5.07;;
49758;SDS011;35654;46.080;11.118;2022-10-10T09:35:44;10.07;;;5.38;;
49758;SDS011;35654;46.080;11.118;2022-10-10T09:38:22;11.05;;;5.20;;
49758;SDS011;35654;46.080;11.118;2022-10-10T09:40:56;9.05;;;4.80;;
49758;SDS011;35654;46.080;11.118;2022-10-10T09:43:28;15.10;;;5.13;;
49758;SDS011;35654;46.080;11.118;2022-10-10T09:45:56;10.30;;;5.03;;
49758;SDS011;35654;46.080;11.118;2022-10-10T09:48:26;16.05;;;6.15;;
49758;SDS011;35654;46.080;11.118;2022-10-10T09:50:55;20.92;;;8.85;;
49758;SDS011;35654;46.080;11.118;2022-10-10T09:53:20;15.93;;;7.03;;
49758;SDS011;35654;46.080;11.118;2022-10-10T09:55:46;11.43;;;7.03;;
49758;SDS011;35654;46.080;11.118;2022-10-10T10:00:51;9.65;;;5.10;;
49758;SDS011;35654;46.080;11.118;2022-10-10T10:05:55;10.35;;;5.00;;
49758;SDS011;35654;46.080;11.118;2022-10-10T10:08:41;10.63;;;5.60;;
49758;SDS011;35654;46.080;11.118;2022-10-10T10:11:26;13.30;;;5.75;;
49758;SDS011;35654;46.080;11.118;2022-10-10T10:13:55;12.90;;;5.32;;
49758;SDS011;35654;46.080;11.118;2022-10-10T10:16:28;20.33;;;10.30;;
49758;SDS011;35654;46.080;11.118;2022-10-10T10:18:56;13.02;;;5.57;;
49758;SDS011;35654;46.080;11.118;2022-10-10T10:21:22;19.70;;;5.30;;
49758;SDS011;35654;46.080;11.118;2022-10-10T10:26:21;9.25;;;6.20;;
49758;SDS011;35654;46.080;11.118;2022-10-10T10:28:51;11.65;;;5.53;;
49758;SDS011;35654;46.080;11.118;2022-10-10T10:31:23;9.90;;;4.68;;
49758;SDS011;35654;46.080;11.118;2022-10-10T10:33:54;9.27;;;4.80;;
49758;SDS011;35654;46.080;11.118;2022-10-10T10:36:34;12.25;;;4.50;;
49758;SDS011;35654;46.080;11.118;2022-10-10T10:39:16;9.82;;;5.50;;
49758;SDS011;35654;46.080;11.118;2022-10-10T10:41:59;13.75;;;5.28;;
49758;SDS011;35654;46.080;11.118;2022-10-10T10:45:00;8.30;;;4.80;;
49758;SDS011;35654;46.080;11.118;2022-10-10T10:47:42;8.40;;;4.25;;
49758;SDS011;35654;46.080;11.118;2022-10-10T10:53:20;10.75;;;3.65;;
49758;SDS011;35654;46.080;11.118;2022-10-10T10:56:18;9.82;;;4.50;;
49758;SDS011;35654;46.080;11.118;2022-10-10T11:02:03;10.07;;;4.30;;
49758;SDS011;35654;46.080;11.118;2022-10-10T11:07:44;7.80;;;4.30;;
49758;SDS011;35654;46.080;11.118;2022-10-10T11:13:13;7.22;;;4.00;;
49758;SDS011;35654;46.080;11.118;2022-10-10T11:16:10;10.85;;;4.40;;
49758;SDS011;35654;46.080;11.118;2022-10-10T11:18:58;6.55;;;4.22;;
49758;SDS011;35654;46.080;11.118;2022-10-10T11:21:31;5.82;;;4.10;;
49758;SDS011;35654;46.080;11.118;2022-10-10T11:24:40;10.48;;;4.78;;
49758;SDS011;35654;46.080;11.118;2022-10-10T11:26:55;11.25;;;4.30;;
49758;SDS011;35654;46.080;11.118;2022-10-10T11:29:25;12.45;;;4.30;;
49758;SDS011;35654;46.080;11.118;2022-10-10T11:34:29;10.18;;;4.82;;
49758;SDS011;35654;46.080;11.118;2022-10-10T11:37:02;7.45;;;4.20;;
49758;SDS011;35654;46.080;11.118;2022-10-10T11:39:38;8.40;;;4.20;;
49758;SDS011;35654;46.080;11.118;2022-10-10T11:42:17;13.32;;;4.55;;
49758;SDS011;35654;46.080;11.118;2022-10-10T11:44:50;10.00;;;4.00;;
49758;SDS011;35654;46.080;11.118;2022-10-10T11:50:41;8.93;;;4.47;;
49758;SDS011;35654;46.080;11.118;2022-10-10T11:53:12;9.32;;;4.30;;
49758;SDS011;35654;46.080;11.118;2022-10-10T12:01:36;6.38;;;3.33;;
49758;SDS011;35654;46.080;11.118;2022-10-10T12:03:49;7.22;;;3.30;;
49758;SDS011;35654;46.080;11.118;2022-10-10T12:09:24;11.07;;;3.60;;
49758;SDS011;35654;46.080;11.118;2022-10-10T12:11:55;9.27;;;3.72;;
49758;SDS011;35654;46.080;11.118;2022-10-10T12:14:25;11.73;;;3.80;;
49758;SDS011;35654;46.080;11.118;2022-10-10T12:16:55;7.80;;;4.13;;
49758;SDS011;35654;46.080;11.118;2022-10-10T12:19:22;8.25;;;3.88;;
49758;SDS011;35654;46.080;11.118;2022-10-10T12:24:23;11.85;;;3.60;;
49758;SDS011;35654;46.080;11.118;2022-10-10T12:40:34;8.70;;;3.40;;
49758;SDS011;35654;46.080;11.118;2022-10-10T12:46:13;7.40;;;3.53;;
49758;SDS011;35654;46.080;11.118;2022-10-10T12:50:53;10.60;;;3.50;;
49758;SDS011;35654;46.080;11.118;2022-10-10T12:53:21;5.93;;;3.60;;
49758;SDS011;35654;46.080;11.118;2022-10-10T12:55:49;9.15;;;3.50;;
49758;SDS011;35654;46.080;11.118;2022-10-10T12:58:21;10.35;;;3.65;;
49758;SDS011;35654;46.080;11.118;2022-10-10T13:00:49;10.32;;;3.80;;
49758;SDS011;35654;46.080;11.118;2022-10-10T13:05:44;10.48;;;3.70;;
49758;SDS011;35654;46.080;11.118;2022-10-10T13:08:15;9.93;;;3.38;;
49758;SDS011;35654;46.080;11.118;2022-10-10T13:11:05;7.22;;;3.35;;
49758;SDS011;35654;46.080;11.118;2022-10-10T13:13:39;10.10;;;3.33;;
49758;SDS011;35654;46.080;11.118;2022-10-10T13:16:14;7.03;;;3.10;;
49758;SDS011;35654;46.080;11.118;2022-10-10T13:18:47;6.13;;;3.20;;
49758;SDS011;35654;46.080;11.118;2022-10-10T13:21:13;13.23;;;3.72;;
49758;SDS011;35654;46.080;11.118;2022-10-10T13:23:43;10.40;;;3.33;;
49758;SDS011;35654;46.080;11.118;2022-10-10T13:26:30;8.25;;;3.58;;
49758;SDS011;35654;46.080;11.118;2022-10-10T13:28:58;8.55;;;3.83;;
49758;SDS011;35654;46.080;11.118;2022-10-10T13:31:28;6.20;;;2.85;;
49758;SDS011;35654;46.080;11.118;2022-10-10T13:33:56;9.55;;;3.80;;
49758;SDS011;35654;46.080;11.118;2022-10-10T13:36:26;7.10;;;3.10;;
49758;SDS011;35654;46.080;11.118;2022-10-10T13:38:53;12.55;;;3.65;;
49758;SDS011;35654;46.080;11.118;2022-10-10T13:41:19;9.75;;;3.80;;
49758;SDS011;35654;46.080;11.118;2022-10-10T13:43:47;9.82;;;3.80;;
49758;SDS011;35654;46.080;11.118;2022-10-10T13:46:27;8.85;;;3.67;;
49758;SDS011;35654;46.080;11.118;2022-10-10T13:48:54;7.53;;;3.40;;
49758;SDS011;35654;46.080;11.118;2022-10-10T13:51:20;11.90;;;3.65;;
49758;SDS011;35654;46.080;11.118;2022-10-10T13:57:22;10.70;;;3.70;;
49758;SDS011;35654;46.080;11.118;2022-10-10T13:59:58;11.85;;;3.65;;
49758;SDS011;35654;46.080;11.118;2022-10-10T14:02:30;10.77;;;3.90;;
49758;SDS011;35654;46.080;11.118;2022-10-10T14:04:56;9.32;;;3.70;;
49758;SDS011;35654;46.080;11.118;2022-10-10T14:07:23;9.65;;;3.50;;
49758;SDS011;35654;46.080;11.118;2022-10-10T14:09:55;9.00;;;4.03;;
49758;SDS011;35654;46.080;11.118;2022-10-10T14:12:27;13.93;;;5.20;;
49758;SDS011;35654;46.080;11.118;2022-10-10T14:14:56;15.38;;;4.00;;
49758;SDS011;35654;46.080;11.118;2022-10-10T14:17:23;9.00;;;3.35;;
49758;SDS011;35654;46.080;11.118;2022-10-10T14:19:49;7.68;;;3.90;;
49758;SDS011;35654;46.080;11.118;2022-10-10T14:22:15;8.60;;;3.20;;
49758;SDS011;35654;46.080;11.118;2022-10-10T14:24:41;12.65;;;3.78;;
49758;SDS011;35654;46.080;11.118;2022-10-10T14:29:39;10.40;;;3.20;;
49758;SDS011;35654;46.080;11.118;2022-10-10T14:32:05;14.88;;;3.70;;
49758;SDS011;35654;46.080;11.118;2022-10-10T14:34:30;9.23;;;4.20;;
49758;SDS011;35654;46.080;11.118;2022-10-10T14:36:56;7.68;;;3.75;;
49758;SDS011;35654;46.080;11.118;2022-10-10T14:39:21;9.82;;;3.65;;
49758;SDS011;35654;46.080;11.118;2022-10-10T14:41:47;9.30;;;3.90;;
49758;SDS011;35654;46.080;11.118;2022-10-10T14:44:12;9.45;;;4.72;;
49758;SDS011;35654;46.080;11.118;2022-10-10T14:46:38;17.15;;;4.90;;
49758;SDS011;35654;46.080;11.118;2022-10-10T14:49:04;12.05;;;4.10;;
49758;SDS011;35654;46.080;11.118;2022-10-10T14:51:30;12.52;;;4.70;;
49758;SDS011;35654;46.080;11.118;2022-10-10T14:54:02;13.30;;;4.32;;
49758;SDS011;35654;46.080;11.118;2022-10-10T14:56:28;12.45;;;4.55;;
49758;SDS011;35654;46.080;11.118;2022-10-10T14:58:54;14.05;;;4.20;;
49758;SDS011;35654;46.080;11.118;2022-10-10T15:01:19;10.55;;;4.13;;
49758;SDS011;35654;46.080;11.118;2022-10-10T15:06:10;9.33;;;3.83;;
49758;SDS011;35654;46.080;11.118;2022-10-10T15:08:36;7.80;;;3.72;;
49758;SDS011;35654;46.080;11.118;2022-10-10T15:13:26;8.77;;;4.15;;
49758;SDS011;35654;46.080;11.118;2022-10-10T15:15:52;8.95;;;4.38;;
49758;SDS011;35654;46.080;11.118;2022-10-10T15:18:17;9.52;;;4.90;;
49758;SDS011;35654;46.080;11.118;2022-10-10T15:20:43;8.38;;;4.43;;
49758;SDS011;35654;46.080;11.118;2022-10-10T15:23:08;15.32;;;4.82;;
49758;SDS011;35654;46.080;11.118;2022-10-10T15:25:34;11.02;;;4.93;;
49758;SDS011;35654;46.080;11.118;2022-10-10T15:28:02;13.05;;;4.97;;
49758;SDS011;35654;46.080;11.118;2022-10-10T15:30:28;12.13;;;4.72;;
49758;SDS011;35654;46.080;11.118;2022-10-10T15:32:54;7.72;;;4.95;;
49758;SDS011;35654;46.080;11.118;2022-10-10T15:35:21;12.43;;;5.57;;
49758;SDS011;35654;46.080;11.118;2022-10-10T15:37:47;13.32;;;5.90;;
49758;SDS011;35654;46.080;11.118;2022-10-10T15:40:15;8.63;;;4.85;;
49758;SDS011;35654;46.080;11.118;2022-10-10T15:42:44;10.45;;;4.55;;
49758;SDS011;35654;46.080;11.118;2022-10-10T15:45:10;12.38;;;4.35;;
49758;SDS011;35654;46.080;11.118;2022-10-10T15:47:37;19.60;;;5.53;;
49758;SDS011;35654;46.080;11.118;2022-10-10T15:50:05;14.27;;;5.28;;
49758;SDS011;35654;46.080;11.118;2022-10-10T15:52:32;18.42;;;4.95;;
49758;SDS011;35654;46.080;11.118;2022-10-10T15:54:58;16.63;;;4.67;;
49758;SDS011;35654;46.080;11.118;2022-10-10T15:57:23;13.53;;;5.77;;
49758;SDS011;35654;46.080;11.118;2022-10-10T15:59:48;16.23;;;6.22;;
49758;SDS011;35654;46.080;11.118;2022-10-10T16:02:14;10.00;;;4.93;;
49758;SDS011;35654;46.080;11.118;2022-10-10T16:04:40;50.65;;;23.15;;
49758;SDS011;35654;46.080;11.118;2022-10-10T16:07:06;33.37;;;17.93;;
49758;SDS011;35654;46.080;11.118;2022-10-10T16:09:32;15.13;;;7.50;;
49758;SDS011;35654;46.080;11.118;2022-10-10T16:11:58;14.73;;;5.35;;
49758;SDS011;35654;46.080;11.118;2022-10-10T16:14:23;8.20;;;5.18;;
49758;SDS011;35654;46.080;11.118;2022-10-10T16:16:49;9.77;;;5.00;;
49758;SDS011;35654;46.080;11.118;2022-10-10T16:19:14;10.40;;;5.07;;
49758;SDS011;35654;46.080;11.118;2022-10-10T16:21:39;9.80;;;4.73;;
49758;SDS011;35654;46.080;11.118;2022-10-10T16:24:05;12.10;;;4.80;;
49758;SDS011;35654;46.080;11.118;2022-10-10T16:26:31;10.00;;;4.45;;
49758;SDS011;35654;46.080;11.118;2022-10-10T16:28:59;7.53;;;4.97;;